Time;durP1;ratioP1;P1;durP2;ratioP2;P2;SDS_P1;SDS_P2;PMS_P1;PMS_P2;Temp;Humidity;BMP_temperature;BMP_pressure;BME280_temperature;BME280_humidity;BME280_pressure;Samples;Min_cycle;Max_cycle;Signal;HPM_P1;HPM_P2
2022/07/31 00:00:47;;;;;;;17.55;10.30;;;;;;;22.07;74.33;95083.88;5103938;28;20516;-86
2022/07/31 00:03:13;;;;;;;15.15;10.48;;;;;;;21.91;74.68;95059.53;5102737;28;20051;-85
2022/07/31 00:05:38;;;;;;;13.80;11.45;;;;;;;21.16;75.96;94954.28;5084980;28;20066;-86
2022/07/31 00:08:04;;;;;;;15.70;10.80;;;;;;;21.61;75.89;95023.31;5084677;28;20085;-85
2022/07/31 00:10:29;;;;;;;18.48;10.98;;;;;;;22.09;75.40;95093.22;5085284;28;20031;-85
2022/07/31 00:12:55;;;;;;;15.60;11.45;;;;;;;22.10;75.48;95078.59;5102535;28;20530;-86
2022/07/31 00:15:21;;;;;;;18.40;12.45;;;;;;;21.79;76.90;95029.94;5084812;28;20043;-85
2022/07/31 00:17:47;;;;;;;15.20;13.07;;;;;;;21.67;77.39;95028.09;5084443;28;20023;-85
2022/07/31 00:20:15;;;;;;;17.08;13.07;;;;;;;21.24;75.82;94966.88;5084110;28;20042;-85
2022/07/31 00:22:42;;;;;;;19.58;12.70;;;;;;;22.14;76.38;95101.03;5103352;28;20599;-85
2022/07/31 00:25:09;;;;;;;20.08;12.68;;;;;;;21.94;76.15;95050.75;5103030;28;20023;-85
2022/07/31 00:27:35;;;;;;;23.95;13.05;;;;;;;22.02;75.84;95074.13;5082758;28;20039;-85
2022/07/31 00:30:00;;;;;;;24.30;13.27;;;;;;;22.20;74.81;95110.44;5084968;28;20426;-85
2022/07/31 00:32:26;;;;;;;15.25;13.65;;;;;;;21.97;75.03;95087.13;5084448;28;20461;-85
2022/07/31 00:34:51;;;;;;;21.13;14.77;;;;;;;21.65;75.36;95049.25;5103373;28;20038;-85
2022/07/31 00:37:17;;;;;;;17.83;13.25;;;;;;;22.01;74.74;95085.28;5103965;28;20032;-85
2022/07/31 00:39:43;;;;;;;21.67;15.40;;;;;;;21.93;76.70;95078.88;5084839;28;20257;-85
2022/07/31 00:42:17;;;;;;;26.20;15.85;;;;;;;22.23;76.48;95120.56;5084427;28;20422;-85
2022/07/31 00:44:42;;;;;;;15.38;13.77;;;;;;;22.09;74.93;95081.63;5084948;28;20142;-85
2022/07/31 00:47:08;;;;;;;20.55;14.38;;;;;;;21.81;74.67;95043.88;5102400;28;20462;-85
2022/07/31 00:49:33;;;;;;;16.75;13.48;;;;;;;21.77;74.89;95038.38;5084253;28;20027;-85
2022/07/31 00:51:59;;;;;;;19.25;15.88;;;;;;;21.88;75.54;95073.75;5084562;28;20034;-85
2022/07/31 00:54:24;;;;;;;21.88;17.45;;;;;;;22.04;76.13;95092.69;5084503;28;20055;-85
2022/07/31 00:56:50;;;;;;;29.13;19.33;;;;;;;21.08;75.17;94944.44;5083988;28;20063;-86
2022/07/31 00:59:16;;;;;;;24.42;18.08;;;;;;;21.22;74.32;94982.59;5103380;28;20036;-85
2022/07/31 01:01:41;;;;;;;27.00;19.58;;;;;;;21.81;74.41;95079.75;5085049;28;20099;-85
2022/07/31 01:04:07;;;;;;;22.05;18.77;;;;;;;21.70;74.23;95069.81;5084708;28;20059;-86
2022/07/31 01:06:32;;;;;;;31.08;18.90;;;;;;;21.65;75.48;95054.66;5084424;28;20024;-86
2022/07/31 01:08:57;;;;;;;25.45;19.95;;;;;;;22.15;75.67;95137.72;5083649;28;20031;-85
2022/07/31 01:11:37;;;;;;;26.10;18.88;;;;;;;22.12;75.53;95124.94;5080702;28;20047;-87
2022/07/31 01:14:07;;;;;;;23.92;18.73;;;;;;;21.94;74.34;95129.06;5081771;28;20036;-85
2022/07/31 01:16:38;;;;;;;23.40;18.63;;;;;;;21.26;74.77;95112.94;5084040;28;20500;-85
2022/07/31 01:19:14;;;;;;;28.92;18.00;;;;;;;20.85;75.50;95064.72;5083662;28;20524;-85
2022/07/31 01:21:48;;;;;;;24.52;17.40;;;;;;;21.55;75.39;95120.72;5082826;28;20576;-85
2022/07/31 01:24:22;;;;;;;23.13;18.92;;;;;;;21.63;75.66;95123.59;5102827;28;20045;-85
2022/07/31 01:27:00;;;;;;;25.73;17.05;;;;;;;21.00;76.14;95000.09;5083047;28;20051;-85
2022/07/31 01:29:38;;;;;;;26.33;18.15;;;;;;;21.82;75.80;95112.91;5102085;28;20112;-85
2022/07/31 01:32:08;;;;;;;23.67;19.38;;;;;;;21.84;77.16;95122.25;5101779;28;20038;-85
2022/07/31 01:34:51;;;;;;;26.60;18.42;;;;;;;21.64;76.05;95082.78;5082726;28;20678;-86
2022/07/31 01:37:22;;;;;;;23.50;17.27;;;;;;;21.66;76.23;95087.84;5101164;28;20480;-85
2022/07/31 01:39:57;;;;;;;24.55;18.10;;;;;;;20.83;76.68;94965.34;5082748;28;20155;-85
2022/07/31 01:42:25;;;;;;;26.30;17.15;;;;;;;21.15;75.94;95012.03;5101288;28;20104;-85
2022/07/31 01:44:55;;;;;;;20.60;17.92;;;;;;;21.62;75.72;95097.72;5082294;28;20116;-86
2022/07/31 01:47:22;;;;;;;27.65;17.05;;;;;;;21.88;75.88;95114.25;5082003;28;20067;-86
2022/07/31 01:49:50;;;;;;;23.35;14.80;;;;;;;21.86;75.00;95120.00;5102469;28;20031;-85
2022/07/31 01:52:17;;;;;;;19.75;16.52;;;;;;;21.73;75.85;95078.00;5082007;28;20042;-86
2022/07/31 01:54:43;;;;;;;20.20;16.27;;;;;;;21.97;76.54;95111.41;5101765;28;20896;-85
2022/07/31 01:57:09;;;;;;;21.73;16.30;;;;;;;21.88;75.08;95093.44;5082809;28;20375;-85
2022/07/31 01:59:37;;;;;;;17.50;15.05;;;;;;;21.83;75.20;95080.19;5083408;28;20031;-85
2022/07/31 02:02:03;;;;;;;19.95;15.13;;;;;;;21.82;75.00;95088.63;5102032;28;20036;-85
2022/07/31 02:04:30;;;;;;;16.15;12.93;;;;;;;21.92;73.55;95115.13;5083664;28;20031;-85
2022/07/31 02:06:58;;;;;;;18.42;11.60;;;;;;;21.17;72.93;95007.91;5083432;28;20042;-85
2022/07/31 02:09:25;;;;;;;27.75;13.77;;;;;;;21.86;73.39;95117.28;5098467;28;20032;-85
2022/07/31 02:11:53;;;;;;;15.70;12.05;;;;;;;21.30;72.64;95042.91;5104813;28;20040;-85
2022/07/31 02:14:19;;;;;;;17.48;12.15;;;;;;;21.19;73.40;95064.22;5102747;28;20692;-85
2022/07/31 02:16:47;;;;;;;16.50;11.18;;;;;;;19.65;73.99;94793.47;5102154;28;20111;-85
2022/07/31 02:19:13;;;;;;;15.65;11.65;;;;;;;21.62;73.50;95098.53;5082058;28;20035;-85
2022/07/31 02:21:40;;;;;;;14.98;11.57;;;;;;;20.39;73.19;94946.41;5082809;28;20035;-85
2022/07/31 02:24:06;;;;;;;16.85;11.77;;;;;;;20.94;72.96;95036.50;5082382;28;20413;-85
2022/07/31 02:26:33;;;;;;;24.42;12.02;;;;;;;20.92;72.93;95019.09;5081878;28;20240;-86
2022/07/31 02:29:00;;;;;;;17.45;12.05;;;;;;;21.39;73.66;95084.00;5082131;28;20036;-86
2022/07/31 02:31:27;;;;;;;18.73;11.43;;;;;;;21.20;74.27;95084.66;5081930;28;20101;-85
2022/07/31 02:33:53;;;;;;;14.27;11.15;;;;;;;21.53;74.13;95108.69;5081779;28;20039;-86
2022/07/31 02:36:21;;;;;;;15.23;11.10;;;;;;;20.89;73.61;95017.09;5100461;28;20032;-85
2022/07/31 02:38:48;;;;;;;14.05;11.20;;;;;;;21.08;72.72;95069.25;5081265;28;20907;-85
2022/07/31 02:41:15;;;;;;;19.23;11.50;;;;;;;21.08;73.87;95055.78;5079471;28;20096;-85
2022/07/31 02:43:43;;;;;;;13.73;10.45;;;;;;;21.56;73.82;95132.28;5078654;28;20475;-85
2022/07/31 02:46:10;;;;;;;15.55;10.98;;;;;;;21.23;72.87;95067.00;5079528;28;20062;-85
2022/07/31 02:48:36;;;;;;;17.05;11.95;;;;;;;21.21;73.52;95070.03;5081567;28;20040;-85
2022/07/31 02:51:02;;;;;;;24.23;12.93;;;;;;;21.68;72.99;95115.25;5080398;28;20525;-85
2022/07/31 02:53:29;;;;;;;20.35;12.68;;;;;;;21.05;72.60;95020.66;5081430;28;20063;-85
2022/07/31 02:55:55;;;;;;;19.08;15.05;;;;;;;21.66;72.09;95134.50;5081237;28;20062;-85
2022/07/31 02:58:21;;;;;;;16.75;13.05;;;;;;;21.66;72.51;95133.72;5100369;28;20063;-85
2022/07/31 03:00:47;;;;;;;21.05;15.50;;;;;;;21.25;72.40;95116.78;5081245;28;20082;-85
2022/07/31 03:03:12;;;;;;;20.15;14.98;;;;;;;20.86;73.44;95061.69;5081267;28;20235;-85
2022/07/31 03:05:38;;;;;;;17.45;15.63;;;;;;;20.79;73.04;95035.31;5081488;28;20036;-85
2022/07/31 03:08:03;;;;;;;24.10;15.73;;;;;;;20.08;72.82;94899.66;5081260;28;20050;-85
2022/07/31 03:10:29;;;;;;;22.38;16.77;;;;;;;20.91;73.59;95063.34;5100405;28;20473;-86
2022/07/31 03:12:57;;;;;;;27.15;17.40;;;;;;;21.12;73.33;95093.66;5100532;28;20501;-86
2022/07/31 03:15:25;;;;;;;22.25;16.80;;;;;;;21.20;72.83;95102.75;5081520;28;20487;-85
2022/07/31 03:17:53;;;;;;;20.80;17.92;;;;;;;21.16;73.15;95130.41;5100081;28;20031;-85
2022/07/31 03:20:19;;;;;;;25.52;17.65;;;;;;;20.59;72.92;95060.53;5100587;28;20030;-85
2022/07/31 03:22:45;;;;;;;22.02;18.67;;;;;;;20.51;74.38;95109.13;5081613;28;20031;-85
2022/07/31 03:25:10;;;;;;;23.15;18.42;;;;;;;20.49;75.60;95131.03;5099410;28;20130;-86
2022/07/31 03:27:36;;;;;;;18.90;16.45;;;;;;;19.83;75.09;95096.16;5082302;28;20817;-86
2022/07/31 03:30:04;;;;;;;20.35;14.50;;;;;;;19.91;74.99;95124.09;5083471;28;20039;-85
2022/07/31 03:32:29;;;;;;;16.67;14.75;;;;;;;19.54;76.39;95101.66;5084448;28;20031;-85
2022/07/31 03:34:55;;;;;;;18.20;14.90;;;;;;;19.38;77.56;95098.78;5082107;28;20097;-85
2022/07/31 03:37:20;;;;;;;21.98;14.45;;;;;;;19.62;76.93;95146.53;5081693;28;20207;-85
2022/07/31 03:39:45;;;;;;;18.15;14.57;;;;;;;19.02;75.91;95067.16;5080978;28;20532;-85
2022/07/31 03:42:12;;;;;;;16.73;14.00;;;;;;;19.36;76.69;95135.19;5081295;28;20122;-85
2022/07/31 03:44:39;;;;;;;21.10;15.77;;;;;;;19.28;77.70;95156.47;5081193;28;20036;-85
2022/07/31 03:47:05;;;;;;;19.77;15.32;;;;;;;19.06;77.65;95113.78;5081178;28;20047;-85
2022/07/31 03:49:32;;;;;;;17.67;14.50;;;;;;;19.39;77.47;95145.28;5080699;28;20063;-85
2022/07/31 03:51:58;;;;;;;28.98;15.38;;;;;;;19.44;77.69;95169.31;5080774;28;20039;-85
2022/07/31 03:54:23;;;;;;;15.75;14.00;;;;;;;19.14;76.38;95101.38;5080763;28;20072;-85
2022/07/31 03:56:50;;;;;;;17.73;14.07;;;;;;;19.56;76.47;95172.06;5080251;28;20028;-85
2022/07/31 03:59:17;;;;;;;19.58;14.85;;;;;;;19.54;76.64;95147.38;5079857;28;20027;-85
2022/07/31 04:01:43;;;;;;;21.92;16.73;;;;;;;19.22;75.88;95109.34;5081878;28;20035;-85
2022/07/31 04:04:09;;;;;;;20.70;17.00;;;;;;;18.97;76.41;95085.41;5084175;28;20635;-85
2022/07/31 04:06:35;;;;;;;22.92;16.08;;;;;;;19.55;77.28;95162.41;5084123;28;20084;-85
2022/07/31 04:09:00;;;;;;;22.05;17.08;;;;;;;19.10;77.60;95146.16;5084616;28;20039;-85
2022/07/31 04:11:27;;;;;;;30.08;17.67;;;;;;;19.16;78.88;95166.34;5084220;28;20035;-85
2022/07/31 04:13:52;;;;;;;25.70;18.08;;;;;;;18.89;78.79;95136.19;5084238;28;20144;-86
2022/07/31 04:16:18;;;;;;;23.17;16.83;;;;;;;19.20;79.17;95175.34;5084814;28;20035;-85
2022/07/31 04:18:43;;;;;;;24.98;17.77;;;;;;;19.11;78.90;95150.41;5084461;28;20035;-85
2022/07/31 04:21:09;;;;;;;24.75;17.58;;;;;;;19.26;78.64;95174.03;5084233;28;20045;-85
2022/07/31 04:23:34;;;;;;;23.00;17.70;;;;;;;17.59;78.97;94957.34;5103421;28;20055;-85
2022/07/31 04:26:00;;;;;;;24.08;17.60;;;;;;;18.86;79.40;95134.16;5102913;28;20504;-86
2022/07/31 04:28:25;;;;;;;25.23;19.45;;;;;;;18.15;80.06;95049.25;5084049;28;20042;-85
2022/07/31 04:30:51;;;;;;;26.50;20.30;;;;;;;18.98;79.70;95152.25;5084201;28;20134;-86
2022/07/31 04:33:17;;;;;;;28.65;20.33;;;;;;;19.18;79.50;95164.13;5084702;28;20042;-86
2022/07/31 04:35:42;;;;;;;24.30;18.63;;;;;;;18.63;78.87;95067.63;5086117;28;20039;-85
2022/07/31 04:38:07;;;;;;;27.52;18.85;;;;;;;18.75;78.72;95063.13;5086899;28;20404;-85
2022/07/31 04:40:33;;;;;;;26.27;18.98;;;;;;;18.69;78.33;95053.66;5105935;28;20487;-86
2022/07/31 04:42:58;;;;;;;29.45;18.67;;;;;;;19.07;78.26;95101.13;5110835;28;20057;-86
2022/07/31 04:45:24;;;;;;;24.50;18.50;;;;;;;19.35;78.13;95115.59;5103367;28;20038;-85
2022/07/31 04:47:49;;;;;;;21.60;17.17;;;;;;;18.62;77.54;94988.16;5090065;28;20053;-86
2022/07/31 04:50:15;;;;;;;22.38;16.27;;;;;;;19.82;77.33;95158.38;5109085;28;20032;-86
2022/07/31 04:52:40;;;;;;;25.73;16.70;;;;;;;19.59;76.62;95141.81;5089637;28;20032;-86
2022/07/31 04:55:06;;;;;;;26.67;17.50;;;;;;;19.59;76.28;95101.47;5088262;28;20027;-86
2022/07/31 04:57:31;;;;;;;19.08;15.65;;;;;;;19.47;75.89;95101.41;5109152;28;20138;-86
2022/07/31 04:59:57;;;;;;;24.77;15.98;;;;;;;19.15;75.50;95044.59;5086756;28;20096;-86
2022/07/31 05:02:22;;;;;;;20.35;16.02;;;;;;;19.86;75.18;95151.19;5085162;28;20216;-86
2022/07/31 05:04:48;;;;;;;20.85;15.77;;;;;;;19.36;74.97;95062.59;5083922;28;20036;-86
2022/07/31 05:07:13;;;;;;;21.30;14.50;;;;;;;19.62;74.53;95092.72;5100263;28;20151;-86
2022/07/31 05:09:38;;;;;;;16.38;14.18;;;;;;;19.96;74.65;95162.34;5080994;28;20055;-86
2022/07/31 05:12:04;;;;;;;22.33;14.07;;;;;;;19.35;74.80;95058.34;5100213;28;20035;-86
2022/07/31 05:14:29;;;;;;;19.85;15.18;;;;;;;19.07;75.08;95037.38;5082803;28;20046;-87
2022/07/31 05:16:55;;;;;;;18.08;15.30;;;;;;;19.94;75.10;95172.66;5082725;28;20039;-86
2022/07/31 05:19:21;;;;;;;17.27;13.75;;;;;;;19.50;75.45;95124.97;5083771;28;20400;-86
2022/07/31 05:21:46;;;;;;;16.52;12.80;;;;;;;19.06;75.81;95061.94;5103724;28;20044;-86
2022/07/31 05:24:11;;;;;;;18.95;13.45;;;;;;;19.22;75.87;95098.59;5082884;28;20066;-86
2022/07/31 05:26:37;;;;;;;17.10;13.93;;;;;;;19.87;75.91;95169.72;5083644;28;20501;-86
2022/07/31 05:29:03;;;;;;;16.00;12.50;;;;;;;19.99;74.30;95177.81;5101329;28;20027;-86
2022/07/31 05:31:29;;;;;;;17.48;13.07;;;;;;;19.94;75.18;95190.69;5079804;28;20043;-86
2022/07/31 05:33:55;;;;;;;13.63;11.55;;;;;;;18.04;74.12;94888.63;5078863;28;20441;-85
2022/07/31 05:36:20;;;;;;;17.95;11.27;;;;;;;19.92;74.36;95174.88;5100855;28;20035;-86
2022/07/31 05:38:46;;;;;;;13.50;11.95;;;;;;;19.86;74.18;95159.28;5100857;28;20501;-85
2022/07/31 05:41:12;;;;;;;23.23;12.65;;;;;;;20.15;74.56;95172.56;5082827;28;20040;-85
2022/07/31 05:43:38;;;;;;;14.95;12.27;;;;;;;20.18;73.61;95169.22;5083109;28;20039;-85
2022/07/31 05:46:04;;;;;;;13.95;11.25;;;;;;;19.45;73.53;95058.72;5101588;28;20072;-86
2022/07/31 05:48:31;;;;;;;17.90;12.35;;;;;;;19.97;73.25;95115.47;5083013;28;20035;-86
2022/07/31 05:50:56;;;;;;;13.18;11.73;;;;;;;19.79;72.80;95076.41;5083431;28;20432;-86
2022/07/31 05:53:22;;;;;;;16.25;11.45;;;;;;;20.27;72.51;95134.91;5082503;28;20035;-85
2022/07/31 05:55:49;;;;;;;13.25;10.52;;;;;;;19.82;73.38;95094.59;5082196;28;20481;-86
2022/07/31 05:58:16;;;;;;;18.55;11.27;;;;;;;20.20;72.75;95144.66;5100583;28;20038;-85
2022/07/31 06:00:42;;;;;;;12.00;10.10;;;;;;;20.23;71.83;95171.69;5082510;28;20043;-86
2022/07/31 06:03:09;;;;;;;13.40;9.55;;;;;;;19.05;72.92;95022.72;5083116;28;20035;-86
2022/07/31 06:05:35;;;;;;;17.40;11.23;;;;;;;18.44;72.64;94947.22;5101304;28;20036;-86
2022/07/31 06:08:00;;;;;;;15.50;12.48;;;;;;;19.84;73.03;95124.63;5081646;28;20523;-86
2022/07/31 06:10:27;;;;;;;14.20;11.85;;;;;;;19.89;72.25;95102.09;5100108;28;20031;-85
2022/07/31 06:12:53;;;;;;;14.35;12.43;;;;;;;20.31;71.52;95173.50;5101563;28;20497;-86
2022/07/31 06:15:19;;;;;;;17.02;11.68;;;;;;;20.19;71.85;95175.41;5082698;28;20319;-86
2022/07/31 06:17:45;;;;;;;14.70;12.00;;;;;;;20.18;71.83;95165.75;5082417;28;20027;-86
2022/07/31 06:20:12;;;;;;;13.48;11.57;;;;;;;19.69;71.98;95087.59;5081677;28;20100;-85
2022/07/31 06:22:38;;;;;;;18.48;12.48;;;;;;;19.32;72.41;95018.66;5082271;28;20031;-85
2022/07/31 06:25:05;;;;;;;14.02;12.45;;;;;;;19.84;71.90;95095.00;5099587;28;20218;-85
2022/07/31 06:27:31;;;;;;;19.92;12.85;;;;;;;20.31;72.18;95170.03;5078462;28;20039;-86
2022/07/31 06:29:56;;;;;;;18.05;12.68;;;;;;;20.31;71.53;95170.81;5078515;28;20032;-86
2022/07/31 06:32:22;;;;;;;17.65;13.13;;;;;;;20.26;71.34;95133.34;5100645;28;20080;-86
2022/07/31 06:34:48;;;;;;;15.30;13.13;;;;;;;20.44;71.21;95131.25;5081844;28;20047;-86
2022/07/31 06:37:13;;;;;;;20.05;13.93;;;;;;;19.62;70.99;95025.47;5079283;28;20288;-86
2022/07/31 06:39:39;;;;;;;16.75;13.10;;;;;;;20.12;71.13;95097.88;5076872;28;20579;-86
2022/07/31 06:42:05;;;;;;;22.15;14.77;;;;;;;20.45;70.53;95102.38;5097340;28;20468;-86
2022/07/31 06:44:32;;;;;;;18.50;14.18;;;;;;;20.75;70.61;95128.75;5081343;28;20043;-86
2022/07/31 06:46:58;;;;;;;17.90;14.10;;;;;;;20.26;69.98;95033.72;5080803;28;20039;-85
2022/07/31 06:49:24;;;;;;;15.73;14.02;;;;;;;20.62;69.62;95073.31;5078810;28;20048;-85
2022/07/31 06:51:50;;;;;;;22.50;13.48;;;;;;;21.00;69.00;95107.16;5078491;28;20043;-86
2022/07/31 06:54:16;;;;;;;19.50;15.07;;;;;;;21.17;69.22;95136.56;5081856;28;20120;-86
2022/07/31 06:56:41;;;;;;;20.27;15.52;;;;;;;19.63;68.95;94903.31;5080744;28;20074;-85
2022/07/31 06:59:06;;;;;;;24.25;15.77;;;;;;;20.61;69.06;95097.88;5081491;28;20039;-85
2022/07/31 07:01:32;;;;;;;27.42;17.05;;;;;;;20.61;69.65;95101.38;5081579;28;20483;-85
2022/07/31 07:03:58;;;;;;;21.55;16.38;;;;;;;20.55;69.34;95105.41;5099514;28;20170;-86
2022/07/31 07:06:24;;;;;;;21.58;17.08;;;;;;;20.66;68.77;95132.69;5081477;28;20043;-85
2022/07/31 07:08:50;;;;;;;18.73;15.25;;;;;;;20.13;68.57;95075.22;5082195;28;20042;-86
2022/07/31 07:11:16;;;;;;;24.17;16.60;;;;;;;20.87;68.30;95191.88;5081840;28;20036;-86
2022/07/31 07:13:41;;;;;;;18.95;16.95;;;;;;;20.64;68.97;95129.56;5099697;28;20066;-85
2022/07/31 07:16:07;;;;;;;20.00;15.20;;;;;;;19.00;69.65;94869.72;5080984;28;20481;-85
2022/07/31 07:18:32;;;;;;;17.98;15.35;;;;;;;21.02;69.75;95156.13;5101135;28;20054;-86
2022/07/31 07:20:58;;;;;;;27.55;16.90;;;;;;;21.30;69.03;95173.16;5081822;28;20146;-85
2022/07/31 07:23:24;;;;;;;18.73;15.45;;;;;;;21.34;68.99;95184.84;5081579;28;20049;-85
2022/07/31 07:25:50;;;;;;;18.70;15.70;;;;;;;21.34;68.82;95144.41;5081065;28;20039;-86
2022/07/31 07:28:15;;;;;;;21.60;16.08;;;;;;;21.34;68.07;95138.22;5081347;28;20082;-85
2022/07/31 07:30:40;;;;;;;21.80;16.02;;;;;;;21.30;67.38;95140.00;5100168;28;20417;-86
2022/07/31 07:33:06;;;;;;;27.52;17.92;;;;;;;20.99;67.26;95086.69;5080013;28;20100;-86
2022/07/31 07:35:32;;;;;;;21.95;17.80;;;;;;;21.24;67.22;95100.94;5077528;28;20048;-86
2022/07/31 07:37:58;;;;;;;30.05;19.20;;;;;;;21.72;67.57;95176.31;5082462;28;20048;-86
2022/07/31 07:40:25;;;;;;;24.83;19.30;;;;;;;21.40;67.85;95128.75;5085108;28;20378;-85
2022/07/31 07:42:51;;;;;;;26.40;19.55;;;;;;;21.19;68.46;95096.56;5085107;28;20088;-86
2022/07/31 07:45:16;;;;;;;23.98;19.02;;;;;;;21.33;67.27;95110.44;5085268;28;20510;-85
2022/07/31 07:47:42;;;;;;;26.33;19.25;;;;;;;21.74;68.05;95140.88;5084974;28;20040;-86
2022/07/31 07:50:08;;;;;;;25.52;19.25;;;;;;;21.86;68.05;95159.69;5104710;28;20857;-86
2022/07/31 07:52:35;;;;;;;25.65;19.65;;;;;;;21.32;67.79;95064.94;5085463;28;20043;-85
2022/07/31 07:55:00;;;;;;;25.42;20.15;;;;;;;21.01;68.26;95025.13;5084643;28;20042;-86
2022/07/31 07:57:26;;;;;;;26.38;19.55;;;;;;;22.03;67.53;95155.94;5082531;28;20036;-85
2022/07/31 07:59:52;;;;;;;28.75;18.85;;;;;;;21.84;67.20;95133.03;5082435;28;20493;-86
2022/07/31 08:02:18;;;;;;;25.05;18.73;;;;;;;21.74;67.00;95120.03;5085253;28;20035;-85
2022/07/31 08:04:44;;;;;;;26.33;18.55;;;;;;;21.47;67.99;95108.16;5103037;28;20035;-86
2022/07/31 08:07:09;;;;;;;23.30;17.05;;;;;;;21.28;67.95;95070.25;5084789;28;20039;-86
2022/07/31 08:09:36;;;;;;;24.60;17.80;;;;;;;21.92;67.76;95151.00;5084426;28;20039;-86
2022/07/31 08:12:02;;;;;;;25.55;16.58;;;;;;;21.95;67.44;95169.22;5084594;28;20142;-86
2022/07/31 08:14:28;;;;;;;19.92;15.73;;;;;;;20.03;67.35;94928.41;5103399;28;20031;-85
2022/07/31 08:16:54;;;;;;;18.40;13.73;;;;;;;19.31;67.02;94804.69;5085544;28;20043;-85
2022/07/31 08:19:20;;;;;;;19.20;14.57;;;;;;;21.32;67.93;95140.47;5104616;28;20105;-86
2022/07/31 08:21:46;;;;;;;19.15;14.25;;;;;;;20.95;68.17;95067.75;5102941;28;20051;-86
2022/07/31 08:24:11;;;;;;;20.60;14.90;;;;;;;21.27;67.91;95106.44;5084556;28;20065;-85
2022/07/31 08:29:23;;;;;;;18.95;14.77;;;;;;;21.60;67.25;95143.94;5103737;28;20055;-85
2022/07/31 08:31:50;;;;;;;17.75;14.40;;;;;;;21.77;67.15;95172.56;5103134;28;20043;-85
2022/07/31 08:34:16;;;;;;;18.20;15.20;;;;;;;21.80;66.39;95172.66;5085267;28;20088;-86
2022/07/31 08:36:42;;;;;;;19.50;14.68;;;;;;;21.77;65.72;95137.47;5085079;28;20419;-85
2022/07/31 08:39:07;;;;;;;15.77;13.50;;;;;;;22.21;65.50;95184.16;5102869;28;20417;-85
2022/07/31 08:41:33;;;;;;;14.40;11.60;;;;;;;22.25;65.40;95176.97;5103108;28;20485;-86
2022/07/31 08:43:58;;;;;;;17.75;12.55;;;;;;;20.09;65.40;94858.94;5084680;28;20092;-86
2022/07/31 08:46:27;;;;;;;13.60;11.55;;;;;;;22.20;65.66;95188.78;5084256;28;20533;-85
2022/07/31 08:48:55;;;;;;;16.08;12.90;;;;;;;22.13;65.43;95174.31;5083626;28;20483;-86
2022/07/31 08:51:23;;;;;;;16.20;11.93;;;;;;;21.05;65.10;94988.28;5102550;28;20565;-85
2022/07/31 08:53:52;;;;;;;15.90;12.75;;;;;;;21.94;64.57;95118.25;5103187;28;20644;-86
2022/07/31 08:56:19;;;;;;;17.65;12.38;;;;;;;21.89;64.73;95094.22;5084860;28;20469;-85
2022/07/31 08:58:45;;;;;;;15.40;12.63;;;;;;;22.24;64.52;95132.94;5083556;28;20042;-86
2022/07/31 09:01:11;;;;;;;13.88;12.15;;;;;;;21.84;64.18;95051.28;5083851;28;20508;-86
2022/07/31 09:03:37;;;;;;;17.05;12.32;;;;;;;22.02;64.57;95098.44;5083666;28;20158;-86
2022/07/31 09:06:05;;;;;;;14.60;12.20;;;;;;;21.87;63.58;95059.47;5084006;28;20036;-86
2022/07/31 09:08:32;;;;;;;14.25;11.90;;;;;;;22.52;62.81;95161.78;5102223;28;20508;-85
2022/07/31 09:11:15;;;;;;;16.10;12.13;;;;;;;22.40;63.96;95137.56;5102186;28;20349;-85
2022/07/31 09:13:59;;;;;;;17.10;12.23;;;;;;;21.80;62.14;95047.72;5083417;28;20599;-85
2022/07/31 09:16:26;;;;;;;15.85;12.30;;;;;;;22.43;63.11;95137.63;5083813;28;20028;-85
2022/07/31 09:19:02;;;;;;;20.00;13.48;;;;;;;22.51;63.76;95155.59;5084494;28;20032;-86
2022/07/31 09:21:39;;;;;;;17.42;11.93;;;;;;;22.78;63.02;95182.91;5102478;28;20143;-85
2022/07/31 09:24:06;;;;;;;13.57;12.13;;;;;;;22.12;62.95;95065.53;5084135;28;20031;-85
2022/07/31 09:26:33;;;;;;;17.23;13.75;;;;;;;23.03;63.21;95182.34;5083447;28;20061;-86
2022/07/31 09:28:59;;;;;;;15.30;13.23;;;;;;;23.25;62.40;95178.19;5083784;28;20441;-85
2022/07/31 09:31:31;;;;;;;18.73;15.30;;;;;;;22.73;62.95;95167.72;5102688;28;20039;-85
2022/07/31 09:33:57;;;;;;;26.20;14.50;;;;;;;22.76;62.61;95131.09;5102196;28;20448;-86
2022/07/31 09:36:25;;;;;;;23.70;15.07;;;;;;;23.18;61.50;95167.22;5083162;28;20035;-86
2022/07/31 09:38:51;;;;;;;18.02;14.98;;;;;;;22.67;60.75;95085.31;5101473;28;20162;-86
2022/07/31 09:41:20;;;;;;;20.10;16.42;;;;;;;22.77;59.67;95057.75;5083076;28;20165;-86
2022/07/31 09:44:01;;;;;;;21.42;17.83;;;;;;;23.40;59.90;95171.94;5083356;28;20032;-85
2022/07/31 09:46:47;;;;;;;20.67;17.13;;;;;;;23.13;58.51;95126.91;5082666;28;20204;-86
2022/07/31 09:49:13;;;;;;;23.67;18.60;;;;;;;22.20;58.67;95042.91;5083029;28;20050;-85
2022/07/31 09:51:43;;;;;;;23.17;16.63;;;;;;;22.98;58.34;95162.91;5101144;28;20579;-85
2022/07/31 09:54:37;;;;;;;21.70;18.17;;;;;;;22.87;57.77;95070.75;5082947;28;20035;-86
2022/07/31 09:57:11;;;;;;;19.30;17.23;;;;;;;23.43;56.16;95157.69;5101964;28;20118;-85
2022/07/31 09:59:36;;;;;;;21.45;17.90;;;;;;;23.04;56.87;95105.47;5081684;28;20036;-85
2022/07/31 10:02:04;;;;;;;30.50;18.88;;;;;;;23.63;56.73;95165.88;5082583;28;20044;-85
2022/07/31 10:04:31;;;;;;;20.70;17.70;;;;;;;23.16;56.93;95109.19;5082538;28;20479;-86
2022/07/31 10:06:57;;;;;;;21.35;18.00;;;;;;;23.23;56.35;95126.34;5082565;28;20142;-86
2022/07/31 10:09:24;;;;;;;20.48;17.90;;;;;;;23.20;55.46;95020.75;5082021;28;20039;-85
2022/07/31 10:11:52;;;;;;;22.17;18.30;;;;;;;24.35;54.05;95144.38;5082587;28;20041;-85
2022/07/31 10:14:23;;;;;;;21.08;18.42;;;;;;;24.52;51.78;95125.69;5101660;28;20038;-86
2022/07/31 10:16:53;;;;;;;23.88;16.42;;;;;;;24.93;51.74;95132.19;5101507;28;20031;-85
2022/07/31 10:19:21;;;;;;;21.75;17.40;;;;;;;25.22;49.91;95117.06;5082641;28;20424;-85
2022/07/31 10:21:56;;;;;;;20.05;16.67;;;;;;;25.23;48.65;95115.91;5083364;28;20036;-85
2022/07/31 10:24:24;;;;;;;19.90;17.55;;;;;;;25.12;48.17;95043.66;5083299;28;20721;-86
2022/07/31 10:26:51;;;;;;;20.35;18.02;;;;;;;25.45;47.88;95029.31;5082392;28;20036;-85
2022/07/31 10:29:17;;;;;;;17.02;15.23;;;;;;;24.99;45.85;94916.38;5082445;28;20119;-85
2022/07/31 10:31:44;;;;;;;18.20;14.00;;;;;;;26.27;43.63;95072.44;5082839;28;20040;-85
2022/07/31 10:34:13;;;;;;;16.23;12.75;;;;;;;26.64;43.21;95134.91;5101434;28;20748;-85
2022/07/31 10:36:42;;;;;;;15.32;11.77;;;;;;;26.34;43.55;95080.66;5082790;28;20061;-85
2022/07/31 10:39:28;;;;;;;15.90;12.18;;;;;;;26.84;43.21;95089.19;5100636;28;20051;-85
2022/07/31 10:42:09;;;;;;;12.05;10.75;;;;;;;26.55;42.88;95039.25;5082133;28;20058;-86
2022/07/31 10:44:40;;;;;;;13.77;12.38;;;;;;;26.76;43.59;95115.56;5082279;28;20452;-85
2022/07/31 10:47:13;;;;;;;14.33;12.70;;;;;;;27.09;43.44;95081.19;5082383;28;20024;-85
2022/07/31 10:49:43;;;;;;;14.25;12.55;;;;;;;27.08;43.05;95140.28;5082935;28;20470;-85
2022/07/31 10:52:10;;;;;;;13.75;12.35;;;;;;;26.46;43.35;95034.16;5081441;28;20126;-85
2022/07/31 10:54:44;;;;;;;13.63;12.23;;;;;;;27.17;42.96;95129.06;5081649;28;20035;-85
2022/07/31 10:57:31;;;;;;;12.90;11.55;;;;;;;26.43;43.65;95064.81;5081876;28;20384;-85
2022/07/31 11:00:18;;;;;;;12.70;10.95;;;;;;;27.00;43.03;95121.59;5082338;28;20041;-86
2022/07/31 11:02:44;;;;;;;12.73;11.43;;;;;;;26.53;43.99;95038.84;5082421;28;20027;-86
2022/07/31 11:05:10;;;;;;;11.52;10.32;;;;;;;27.03;41.75;95118.88;5082417;28;20035;-85
2022/07/31 11:07:36;;;;;;;12.00;10.35;;;;;;;26.64;42.11;95028.03;5083208;28;20088;-85
2022/07/31 11:10:16;;;;;;;10.73;9.73;;;;;;;27.68;41.19;95120.78;5082838;28;20040;-85
2022/07/31 11:12:42;;;;;;;10.63;9.52;;;;;;;27.23;41.76;95054.84;5081545;28;20114;-85
2022/07/31 11:15:23;;;;;;;10.90;9.77;;;;;;;27.83;40.92;95100.59;5082851;28;20019;-86
2022/07/31 11:17:49;;;;;;;12.48;10.45;;;;;;;27.43;42.09;95049.84;5081866;28;20394;-85
2022/07/31 11:20:23;;;;;;;11.93;10.77;;;;;;;27.97;40.28;95095.16;5081918;28;20424;-85